Time;durP1;ratioP1;P1;durP2;ratioP2;P2;SDS_P1;SDS_P2;PMS_P1;PMS_P2;Temp;Humidity;BMP_temperature;BMP_pressure;BME280_temperature;BME280_humidity;BME280_pressure;Samples;Min_cycle;Max_cycle;Signal;HPM_P1;HPM_P2
2023/12/01 00:01:52;;;;;;;42.53;19.63;;;6.80;99.90;;;6.05;100.00;99558.94;4169673;28;20030;-76
2023/12/01 00:03:53;;;;;;;37.75;19.80;;;6.80;99.90;;;6.07;100.00;99566.63;4169824;28;20029;-76
2023/12/01 00:05:54;;;;;;;35.10;18.77;;;6.80;99.90;;;6.07;100.00;99567.44;4168533;28;20033;-76
2023/12/01 00:07:55;;;;;;;36.05;19.33;;;6.80;99.90;;;6.07;100.00;99564.81;4168233;28;20082;-76
2023/12/01 00:09:55;;;;;;;34.92;19.30;;;6.90;99.90;;;6.11;100.00;99570.59;4201169;28;20029;-76
2023/12/01 00:11:56;;;;;;;33.08;18.55;;;6.90;99.90;;;6.12;100.00;99564.38;4169645;28;20033;-76
2023/12/01 00:13:57;;;;;;;42.17;19.35;;;6.90;99.90;;;6.10;100.00;99559.28;4169666;28;20025;-76
2023/12/01 00:15:58;;;;;;;33.75;17.52;;;6.90;99.90;;;6.10;100.00;99563.69;4168025;28;20049;-76
2023/12/01 00:17:59;;;;;;;35.25;19.45;;;6.90;99.90;;;6.12;100.00;99556.53;4168432;28;20064;-76
2023/12/01 00:20:00;;;;;;;32.63;18.30;;;6.90;99.90;;;6.12;100.00;99562.56;4198125;28;20028;-76
2023/12/01 00:22:01;;;;;;;27.77;16.27;;;6.90;99.90;;;6.12;100.00;99562.56;4169674;28;20061;-76
2023/12/01 00:24:02;;;;;;;31.20;18.17;;;6.90;99.90;;;6.13;100.00;99561.59;4169363;28;20017;-76
2023/12/01 00:26:03;;;;;;;36.03;17.83;;;6.90;99.90;;;6.17;100.00;99559.47;4169530;28;20018;-76
2023/12/01 00:28:04;;;;;;;33.78;17.42;;;6.90;99.90;;;6.14;100.00;99554.56;4169457;28;20084;-76
2023/12/01 00:30:06;;;;;;;33.42;16.92;;;6.90;99.90;;;6.13;100.00;99542.44;4169177;28;20025;-76
2023/12/01 00:32:06;;;;;;;35.33;18.35;;;6.90;99.90;;;6.13;100.00;99550.28;4167971;28;20025;-76
2023/12/01 00:34:07;;;;;;;36.72;17.63;;;6.90;99.90;;;6.13;100.00;99553.72;4168231;28;20029;-76
2023/12/01 00:36:09;;;;;;;31.55;17.35;;;6.90;99.90;;;6.11;100.00;99541.78;4171882;28;20032;-76
2023/12/01 00:38:10;;;;;;;29.13;17.63;;;6.90;99.90;;;6.07;100.00;99533.41;4173226;28;20036;-76
2023/12/01 00:40:11;;;;;;;32.25;16.30;;;6.90;99.90;;;6.08;100.00;99539.47;4167974;28;20022;-76
2023/12/01 00:42:13;;;;;;;28.58;15.10;;;6.90;99.90;;;6.11;100.00;99536.53;4168077;28;20032;-76
2023/12/01 00:44:14;;;;;;;30.88;16.15;;;6.90;99.90;;;6.07;100.00;99532.59;4169229;28;20493;-76
2023/12/01 00:46:15;;;;;;;27.25;14.70;;;6.90;99.90;;;6.06;100.00;99537.00;4167688;28;20028;-76
2023/12/01 00:48:16;;;;;;;29.88;16.30;;;6.90;99.90;;;6.08;100.00;99537.69;4167910;28;20041;-76
2023/12/01 00:50:16;;;;;;;27.15;15.68;;;6.90;99.90;;;6.08;100.00;99542.09;4167941;28;20440;-76
2023/12/01 00:52:17;;;;;;;30.38;15.85;;;6.90;99.90;;;6.11;100.00;99544.41;4167780;28;20030;-76
2023/12/01 00:54:19;;;;;;;28.85;15.40;;;6.90;99.90;;;6.09;100.00;99538.50;4168946;28;20037;-76
2023/12/01 00:56:20;;;;;;;26.75;14.55;;;6.90;99.90;;;6.12;100.00;99535.56;4167954;28;20048;-76
2023/12/01 00:58:21;;;;;;;25.55;14.57;;;6.90;99.90;;;6.13;100.00;99542.44;4167785;28;20044;-76
2023/12/01 01:00:23;;;;;;;30.52;15.65;;;6.90;99.90;;;6.15;100.00;99550.97;4168942;28;20025;-76
2023/12/01 01:02:24;;;;;;;34.80;16.50;;;6.90;99.90;;;6.15;100.00;99547.53;4168992;28;20066;-76
2023/12/01 01:04:24;;;;;;;26.92;14.55;;;6.90;99.90;;;6.13;100.00;99540.66;4167756;28;20021;-76
2023/12/01 01:06:25;;;;;;;21.80;14.20;;;6.90;99.90;;;6.17;100.00;99537.72;4168782;28;20021;-76
2023/12/01 01:08:29;;;;;;;28.70;15.80;;;6.90;99.90;;;6.19;100.00;99552.28;4168802;28;20104;-76
2023/12/01 01:10:30;;;;;;;29.92;15.48;;;6.90;99.90;;;6.18;100.00;99555.91;4167739;28;20033;-76
2023/12/01 01:12:31;;;;;;;28.13;14.07;;;6.90;99.90;;;6.18;100.00;99545.44;4167691;28;20025;-76
2023/12/01 01:14:32;;;;;;;30.30;15.23;;;7.00;99.90;;;6.19;100.00;99539.19;4168730;28;20076;-76
2023/12/01 01:16:33;;;;;;;34.13;14.98;;;7.00;99.90;;;6.21;100.00;99549.53;4183508;28;20052;-76
2023/12/01 01:18:34;;;;;;;29.02;14.88;;;7.00;99.90;;;6.21;100.00;99550.34;4168897;28;20025;-76
2023/12/01 01:20:34;;;;;;;26.02;15.07;;;7.00;99.90;;;6.24;100.00;99549.22;4167570;28;20028;-76
2023/12/01 01:22:35;;;;;;;26.02;13.75;;;7.00;99.90;;;6.23;100.00;99545.75;4168609;28;20025;-76
2023/12/01 01:24:36;;;;;;;36.33;16.42;;;7.00;99.90;;;6.24;100.00;99543.97;4167643;28;20022;-76
2023/12/01 01:26:37;;;;;;;29.60;15.18;;;7.00;99.90;;;6.24;100.00;99546.59;4167398;28;20028;-76
2023/12/01 01:28:37;;;;;;;34.22;15.15;;;7.00;99.90;;;6.23;100.00;99543.16;4167466;28;20030;-76
2023/12/01 01:30:38;;;;;;;34.38;15.60;;;7.00;99.90;;;6.23;100.00;99545.75;4167302;28;20030;-76
2023/12/01 01:32:39;;;;;;;25.65;15.02;;;7.00;99.90;;;6.23;100.00;99539.69;4167355;28;20044;-76
2023/12/01 01:34:40;;;;;;;24.35;14.40;;;7.00;99.90;;;6.26;100.00;99548.06;4167907;28;20025;-76
2023/12/01 01:36:44;;;;;;;25.92;13.55;;;7.00;99.90;;;6.27;100.00;99548.91;4167321;28;20029;-76
2023/12/01 01:38:45;;;;;;;24.20;13.85;;;7.10;99.90;;;6.27;100.00;99549.72;4168517;28;20099;-76
2023/12/01 01:40:45;;;;;;;25.55;15.10;;;7.00;99.90;;;6.24;100.00;99550.03;4168674;28;20033;-76
2023/12/01 01:42:46;;;;;;;27.38;15.18;;;7.00;99.90;;;6.21;100.00;99547.72;4167498;28;20022;-76
2023/12/01 01:44:47;;;;;;;24.92;14.38;;;7.00;99.90;;;6.19;100.00;99556.69;4168526;28;20029;-76
2023/12/01 01:46:50;;;;;;;25.90;15.40;;;7.00;99.90;;;6.10;100.00;99558.47;4168447;28;20028;-76
2023/12/01 01:48:51;;;;;;;25.98;15.70;;;6.90;99.90;;;6.05;100.00;99550.25;4167910;28;20029;-76
2023/12/01 01:50:53;;;;;;;25.23;14.98;;;6.90;99.90;;;6.00;100.00;99547.31;4170747;28;20030;-76
2023/12/01 01:52:55;;;;;;;26.67;14.85;;;6.80;99.90;;;5.95;100.00;99542.53;4170538;28;20057;-76
2023/12/01 01:54:56;;;;;;;24.95;15.48;;;6.80;99.90;;;5.92;100.00;99536.75;4170476;28;20029;-76
2023/12/01 01:56:58;;;;;;;25.17;14.98;;;6.80;99.90;;;5.91;100.00;99546.41;4170599;28;20057;-76
2023/12/01 01:58:59;;;;;;;26.08;14.70;;;6.70;99.90;;;5.81;100.00;99542.25;4171861;28;20388;-76
2023/12/01 02:01:00;;;;;;;25.20;15.93;;;6.70;99.90;;;5.76;100.00;99547.13;4153857;28;20080;-76
2023/12/01 02:03:02;;;;;;;22.40;13.63;;;6.60;99.90;;;5.70;100.00;99547.75;4171523;28;20018;-76
2023/12/01 02:05:12;;;;;;;28.85;18.17;;;6.50;99.90;;;5.66;100.00;99546.41;4167013;28;20022;-76
2023/12/01 02:07:26;;;;;;;24.65;15.02;;;6.50;99.90;;;5.69;100.00;99553.94;4194287;28;20024;-76
2023/12/01 02:09:32;;;;;;;25.40;15.75;;;6.50;99.90;;;5.73;100.00;99560.53;4170140;28;20049;-76
2023/12/01 02:11:35;;;;;;;23.33;15.50;;;6.50;99.90;;;5.76;100.00;99568.88;4170535;28;20026;-76
2023/12/01 02:13:36;;;;;;;24.42;16.23;;;6.60;99.90;;;5.78;100.00;99559.06;4171510;28;20032;-76
2023/12/01 02:15:37;;;;;;;27.67;17.95;;;6.60;99.90;;;5.78;100.00;99560.88;4160804;28;20037;-76
2023/12/01 02:17:38;;;;;;;28.48;17.95;;;6.50;99.90;;;5.75;100.00;99566.41;4185275;28;20029;-76
2023/12/01 02:19:39;;;;;;;30.85;18.48;;;6.50;99.90;;;5.76;100.00;99573.28;4170337;28;20457;-76
2023/12/01 02:21:47;;;;;;;30.48;17.83;;;6.50;99.90;;;5.73;100.00;99570.97;4171413;28;20028;-76
2023/12/01 02:23:48;;;;;;;26.25;18.27;;;6.50;99.90;;;5.74;100.00;99577.84;4154383;28;20028;-76
2023/12/01 02:25:49;;;;;;;27.80;18.23;;;6.60;99.90;;;5.73;100.00;99570.97;4171179;28;20029;-76
2023/12/01 02:27:50;;;;;;;26.05;17.85;;;6.50;99.90;;;5.73;100.00;99574.44;4170337;28;20026;-76
2023/12/01 02:29:51;;;;;;;29.92;18.30;;;6.60;99.90;;;5.69;100.00;99572.25;4171225;28;20029;-76
2023/12/01 02:31:51;;;;;;;24.55;17.42;;;6.50;99.90;;;5.69;100.00;99578.31;4170128;28;20063;-76
2023/12/01 02:33:53;;;;;;;24.30;17.35;;;6.50;99.90;;;5.65;100.00;99576.97;4171044;28;20033;-76
2023/12/01 02:35:54;;;;;;;23.90;17.23;;;6.50;99.90;;;5.65;100.00;99584.00;4165320;28;20022;-76
2023/12/01 02:37:56;;;;;;;23.50;16.63;;;6.40;99.90;;;5.60;100.00;99576.63;4169761;28;20087;-76
2023/12/01 02:39:57;;;;;;;26.77;17.67;;;6.40;99.90;;;5.59;100.00;99591.47;4203058;28;20021;-76
2023/12/01 02:41:58;;;;;;;27.33;17.08;;;6.40;99.90;;;5.59;100.00;99596.72;4170989;28;20032;-76
2023/12/01 02:43:59;;;;;;;26.83;16.60;;;6.40;99.90;;;5.61;100.00;99593.13;4171178;28;20030;-76
2023/12/01 02:45:59;;;;;;;30.40;18.85;;;6.40;99.90;;;5.54;100.00;99579.84;4166361;28;20030;-76
2023/12/01 02:48:00;;;;;;;24.13;15.93;;;6.40;99.90;;;5.59;100.00;99594.09;4169936;28;20084;-76
2023/12/01 02:50:01;;;;;;;25.77;17.33;;;6.40;99.90;;;5.61;100.00;99598.38;4153185;28;20030;-76
2023/12/01 02:52:02;;;;;;;26.33;17.98;;;6.40;99.90;;;5.59;100.00;99607.19;4171102;28;20021;-76
2023/12/01 02:54:03;;;;;;;24.75;17.83;;;6.40;99.90;;;5.57;100.00;99603.06;4169807;28;20033;-76
2023/12/01 02:56:04;;;;;;;22.90;16.83;;;6.40;99.90;;;5.51;100.00;99601.06;4170851;28;20032;-76
2023/12/01 02:58:05;;;;;;;25.15;17.83;;;6.40;99.90;;;5.53;100.00;99605.16;4170631;28;20053;-76
2023/12/01 03:00:09;;;;;;;20.95;16.25;;;6.30;99.90;;;5.55;100.00;99610.25;4170729;28;20013;-76
2023/12/01 03:02:09;;;;;;;23.85;16.75;;;6.40;99.90;;;5.49;100.00;99598.63;4169163;28;20108;-76
2023/12/01 03:04:10;;;;;;;29.60;17.88;;;6.30;99.90;;;5.52;100.00;99603.53;4169636;28;20033;-76
2023/12/01 03:06:11;;;;;;;25.42;17.25;;;6.40;99.90;;;5.50;100.00;99600.25;4156820;28;20025;-76
2023/12/01 03:08:12;;;;;;;26.55;17.25;;;6.30;99.90;;;5.48;100.00;99594.34;4170703;28;20033;-76
2023/12/01 03:10:13;;;;;;;27.27;17.48;;;6.30;99.90;;;5.41;100.00;99587.25;4170836;28;20030;-76
2023/12/01 03:12:14;;;;;;;29.15;18.25;;;6.30;99.90;;;5.42;100.00;99594.94;4152971;28;20136;-76
2023/12/01 03:14:15;;;;;;;25.48;17.60;;;6.30;99.90;;;5.42;100.00;99586.28;4185895;28;20111;-76
2023/12/01 03:16:16;;;;;;;26.38;17.17;;;6.20;99.90;;;5.39;100.00;99597.03;4168979;28;20129;-76
2023/12/01 03:18:20;;;;;;;26.98;16.60;;;6.30;99.90;;;5.36;100.00;99600.78;4170505;28;20038;-76
2023/12/01 03:20:21;;;;;;;23.13;16.73;;;6.20;99.90;;;5.37;100.00;99601.59;4185765;28;20029;-76
2023/12/01 03:22:22;;;;;;;24.70;16.48;;;6.20;99.90;;;5.40;100.00;99596.91;4169241;28;20030;-76
2023/12/01 03:24:23;;;;;;;26.42;17.55;;;6.20;99.90;;;5.38;100.00;99587.53;4170525;28;20047;-76
2023/12/01 03:26:23;;;;;;;26.98;17.58;;;6.30;99.90;;;5.42;100.00;99596.75;4173601;28;20029;-76
2023/12/01 03:28:24;;;;;;;27.63;17.75;;;6.30;99.90;;;5.41;100.00;99592.47;4176729;28;20025;-76
2023/12/01 03:30:25;;;;;;;27.02;18.23;;;6.20;99.90;;;5.36;100.00;99592.94;4168872;28;20040;-76
2023/12/01 03:32:26;;;;;;;24.15;16.15;;;6.20;99.90;;;5.31;100.00;99587.34;4170278;28;20018;-76
2023/12/01 03:34:27;;;;;;;24.65;17.77;;;6.20;99.90;;;5.36;100.00;99589.50;4170346;28;20080;-76
2023/12/01 03:36:28;;;;;;;26.88;17.70;;;6.20;99.90;;;5.36;100.00;99585.09;4165177;28;20084;-76
2023/12/01 03:38:28;;;;;;;25.02;17.33;;;6.20;99.90;;;5.37;100.00;99585.91;4168944;28;20037;-76
2023/12/01 03:40:29;;;;;;;26.95;17.85;;;6.20;99.90;;;5.38;100.00;99590.97;4169062;28;20026;-76
2023/12/01 03:42:30;;;;;;;29.48;19.38;;;6.20;99.90;;;5.32;100.00;99583.75;4170164;28;20040;-76
2023/12/01 03:44:32;;;;;;;28.15;17.83;;;6.20;99.90;;;5.34;100.00;99584.44;4168937;28;20562;-76
2023/12/01 03:46:33;;;;;;;29.65;19.00;;;6.20;99.90;;;5.30;100.00;99574.41;4168581;28;20025;-76
2023/12/01 03:48:34;;;;;;;26.73;18.83;;;6.20;99.90;;;5.31;100.00;99574.28;4169969;28;20025;-76
2023/12/01 03:50:35;;;;;;;28.38;18.85;;;6.20;99.90;;;5.33;100.00;99585.41;4168914;28;20033;-76
2023/12/01 03:52:36;;;;;;;29.33;18.08;;;6.20;99.90;;;5.34;100.00;99576.59;4169495;28;20045;-76
2023/12/01 03:54:37;;;;;;;32.08;20.02;;;6.20;99.90;;;5.33;100.00;99577.56;4168820;28;20025;-76
2023/12/01 03:56:38;;;;;;;29.92;18.50;;;6.20;99.90;;;5.30;100.00;99575.25;4169813;28;20075;-76
2023/12/01 03:58:39;;;;;;;27.80;18.63;;;6.20;99.90;;;5.30;100.00;99580.47;4170155;28;20178;-76
2023/12/01 04:00:40;;;;;;;32.88;18.70;;;6.10;99.90;;;5.31;100.00;99574.28;4169654;28;20497;-76
2023/12/01 04:02:46;;;;;;;31.05;18.67;;;6.20;99.90;;;5.34;100.00;99575.75;4169842;28;20048;-76
2023/12/01 04:04:47;;;;;;;30.95;19.38;;;6.10;99.90;;;5.31;100.00;99576.06;4167911;28;20075;-76
2023/12/01 04:06:48;;;;;;;32.65;18.58;;;6.10;99.90;;;5.29;100.00;99583.22;4159118;28;20108;-76
2023/12/01 04:08:53;;;;;;;31.52;18.23;;;6.10;99.90;;;5.30;100.00;99570.00;4169637;28;20030;-76
2023/12/01 04:10:55;;;;;;;30.45;17.50;;;6.10;99.90;;;5.34;100.00;99587.06;4168602;28;20033;-76
2023/12/01 04:12:56;;;;;;;36.05;19.13;;;6.10;99.90;;;5.29;100.00;99578.81;4169530;28;20104;-76
2023/12/01 04:14:57;;;;;;;34.40;20.15;;;6.20;99.90;;;5.30;100.00;99590.09;4168171;28;20079;-76
2023/12/01 04:17:08;;;;;;;30.90;18.92;;;6.20;99.90;;;5.32;100.00;99593.38;4168432;28;20432;-76
2023/12/01 04:19:09;;;;;;;27.73;18.30;;;6.20;99.90;;;5.34;100.00;99599.28;4169554;28;20112;-76
2023/12/01 04:21:10;;;;;;;38.45;20.00;;;6.10;99.90;;;5.33;100.00;99611.53;4169689;28;20033;-76
2023/12/01 04:23:11;;;;;;;35.80;21.10;;;6.10;99.90;;;5.32;100.00;99615.13;4169799;28;20025;-76
2023/12/01 04:25:13;;;;;;;33.65;18.83;;;6.20;99.90;;;5.30;100.00;99608.41;4165906;28;20093;-76
2023/12/01 04:27:14;;;;;;;34.72;20.80;;;6.20;99.90;;;5.33;100.00;99606.31;4198540;28;20034;-76
2023/12/01 04:29:14;;;;;;;34.58;19.35;;;6.10;99.90;;;5.36;100.00;99613.84;4168481;28;20025;-76
2023/12/01 04:31:15;;;;;;;33.80;20.77;;;6.20;99.90;;;5.32;100.00;99609.06;4169242;28;20036;-76
2023/12/01 04:33:16;;;;;;;38.63;21.25;;;6.20;99.90;;;5.33;100.00;99622.00;4169386;28;20025;-76
2023/12/01 04:35:17;;;;;;;32.75;19.40;;;6.20;99.90;;;5.37;100.00;99622.53;4163990;28;20030;-76
2023/12/01 04:37:18;;;;;;;31.20;19.33;;;6.20;99.90;;;5.39;100.00;99626.63;4168908;28;20029;-76
2023/12/01 04:39:20;;;;;;;29.88;17.73;;;6.20;99.90;;;5.36;100.00;99626.94;4169426;28;20031;-76
2023/12/01 04:41:21;;;;;;;27.50;17.35;;;6.20;99.90;;;5.39;100.00;99629.25;4168110;28;20036;-76
2023/12/01 04:43:23;;;;;;;31.00;17.90;;;6.20;99.90;;;5.40;100.00;99627.47;4169456;28;20029;-76
2023/12/01 04:45:32;;;;;;;32.25;18.40;;;6.20;99.90;;;5.29;100.00;99627.66;4182147;28;20522;-76
2023/12/01 04:47:33;;;;;;;30.75;18.77;;;6.20;99.90;;;5.31;100.00;99623.97;4168164;28;20029;-76
2023/12/01 04:49:33;;;;;;;32.20;17.40;;;6.20;99.90;;;5.36;100.00;99628.72;4168146;28;20087;-76
2023/12/01 04:51:36;;;;;;;28.20;17.33;;;6.20;99.90;;;5.34;100.00;99634.13;4151232;28;20080;-76
2023/12/01 04:53:37;;;;;;;32.30;18.75;;;6.20;99.90;;;5.36;100.00;99631.34;4167984;28;20420;-76
2023/12/01 04:55:38;;;;;;;30.05;16.92;;;6.20;99.90;;;5.37;100.00;99633.00;4151444;28;20018;-76
2023/12/01 04:57:40;;;;;;;27.27;16.67;;;6.20;99.90;;;5.35;100.00;99633.13;4167778;28;20512;-76
2023/12/01 04:59:41;;;;;;;27.83;17.08;;;6.20;99.90;;;5.35;100.00;99634.91;4167450;28;20068;-76
2023/12/01 05:01:42;;;;;;;31.15;17.38;;;6.20;99.90;;;5.34;100.00;99628.88;4167575;28;20029;-76
2023/12/01 05:03:42;;;;;;;26.25;16.40;;;6.20;99.90;;;5.37;100.00;99641.66;4167786;28;20051;-76
2023/12/01 05:05:43;;;;;;;27.27;16.73;;;6.20;99.90;;;5.40;100.00;99637.91;4184118;28;20027;-76
2023/12/01 05:07:45;;;;;;;27.88;15.82;;;6.20;99.90;;;5.42;100.00;99635.97;4163803;28;20409;-76
2023/12/01 05:09:46;;;;;;;36.38;18.08;;;6.20;99.90;;;5.40;100.00;99632.69;4167683;28;20029;-76
2023/12/01 05:11:47;;;;;;;29.13;17.08;;;6.30;99.90;;;5.43;100.00;99642.84;4167564;28;20033;-76
2023/12/01 05:13:47;;;;;;;28.98;17.10;;;6.30;99.90;;;5.44;100.00;99634.84;4167638;28;20098;-76
2023/12/01 05:15:48;;;;;;;30.25;16.10;;;6.30;99.90;;;5.43;100.00;99633.22;4167303;28;20069;-76
2023/12/01 05:17:52;;;;;;;32.65;17.15;;;6.30;99.90;;;5.39;100.00;99637.09;4167571;28;20071;-76
2023/12/01 05:19:53;;;;;;;31.30;17.30;;;6.30;99.90;;;5.41;100.00;99640.38;4167585;28;20060;-76
2023/12/01 05:21:53;;;;;;;29.10;17.17;;;6.20;99.90;;;5.42;100.00;99636.78;4168777;28;20035;-76
2023/12/01 05:23:54;;;;;;;27.80;15.45;;;6.20;99.90;;;5.43;100.00;99637.63;4167112;28;20018;-76
2023/12/01 05:25:55;;;;;;;30.17;17.00;;;6.30;99.90;;;5.44;100.00;99636.63;4167513;28;20017;-76
2023/12/01 05:27:59;;;;;;;26.83;15.50;;;6.30;99.90;;;5.45;100.00;99638.28;4151110;28;20036;-76
2023/12/01 05:30:00;;;;;;;31.50;16.40;;;6.30;99.90;;;5.44;100.00;99632.22;4167295;28;20033;-76
2023/12/01 05:32:01;;;;;;;29.60;16.17;;;6.30;99.90;;;5.48;100.00;99640.59;4151013;28;20034;-76
2023/12/01 05:34:05;;;;;;;30.63;14.98;;;6.30;99.90;;;5.48;100.00;99638.81;4168571;28;20029;-76
2023/12/01 05:36:08;;;;;;;27.30;16.13;;;6.30;99.90;;;5.49;100.00;99635.22;4167549;28;20576;-76
2023/12/01 05:38:09;;;;;;;26.77;16.20;;;6.30;99.90;;;5.49;100.00;99642.25;4151010;28;20022;-76
2023/12/01 05:40:10;;;;;;;27.95;15.50;;;6.30;99.90;;;5.49;100.00;99645.69;4168731;28;20025;-76
2023/12/01 05:42:11;;;;;;;31.30;15.73;;;6.30;99.90;;;5.47;100.00;99633.72;4168461;28;20030;-76
2023/12/01 05:44:12;;;;;;;27.02;16.13;;;6.30;99.90;;;5.46;100.00;99645.16;4150994;28;20034;-76
2023/12/01 05:46:12;;;;;;;29.88;15.48;;;6.30;99.90;;;5.51;100.00;99646.34;4168429;28;20021;-76
2023/12/01 05:48:13;;;;;;;33.00;15.73;;;6.30;99.90;;;5.49;100.00;99648.31;4168541;28;20514;-76
2023/12/01 05:50:21;;;;;;;29.92;15.40;;;6.30;99.90;;;5.48;100.00;99649.28;4168331;28;20489;-76
2023/12/01 05:52:22;;;;;;;28.90;16.40;;;6.30;99.90;;;5.50;100.00;99655.16;4168440;28;20393;-76
2023/12/01 05:54:23;;;;;;;34.33;17.02;;;6.30;99.90;;;5.50;100.00;99643.88;4167397;28;20034;-76
2023/12/01 05:56:24;;;;;;;30.08;16.65;;;6.30;99.90;;;5.45;100.00;99654.81;4167083;28;20040;-76
2023/12/01 05:58:25;;;;;;;28.08;14.98;;;6.30;99.90;;;5.47;100.00;99655.47;4180216;28;20029;-76
2023/12/01 06:00:31;;;;;;;29.88;15.85;;;6.30;99.90;;;5.48;100.00;99654.50;4200354;28;20025;-76
2023/12/01 06:02:32;;;;;;;26.42;14.43;;;6.30;99.90;;;5.48;100.00;99657.13;4172503;28;20387;-76
2023/12/01 06:04:33;;;;;;;27.08;15.65;;;6.30;99.90;;;5.47;100.00;99652.84;4170672;28;20025;-76
2023/12/01 06:06:34;;;;;;;26.70;14.95;;;6.30;99.90;;;5.47;100.00;99660.69;4167383;28;20583;-76
2023/12/01 06:08:35;;;;;;;27.60;14.98;;;6.30;99.90;;;5.43;100.00;99661.16;4168426;28;20029;-76
2023/12/01 06:10:36;;;;;;;31.00;15.95;;;6.30;99.90;;;5.42;100.00;99651.66;4167322;28;20032;-76
2023/12/01 06:12:38;;;;;;;27.27;15.98;;;6.30;99.90;;;5.45;100.00;99656.59;4167100;28;20079;-76
2023/12/01 06:14:39;;;;;;;28.38;15.55;;;6.30;99.90;;;5.47;100.00;99663.31;4168211;28;20035;-76
2023/12/01 06:16:40;;;;;;;24.52;14.57;;;6.30;99.90;;;5.46;100.00;99663.47;4168025;28;20050;-76
2023/12/01 06:18:41;;;;;;;23.05;13.80;;;6.30;99.90;;;5.49;100.00;99660.56;4168238;28;20029;-76
2023/12/01 06:20:42;;;;;;;25.60;14.25;;;6.30;99.90;;;5.49;100.00;99664.00;4168351;28;20025;-76
2023/12/01 06:22:56;;;;;;;29.83;15.20;;;6.30;99.90;;;5.48;100.00;99659.72;4167217;28;20021;-76
2023/12/01 06:24:57;;;;;;;23.48;13.38;;;6.30;99.90;;;5.50;100.00;99670.84;4167258;28;20060;-76
2023/12/01 06:27:00;;;;;;;22.58;13.48;;;6.30;99.90;;;5.49;100.00;99669.22;4167230;28;20429;-76
2023/12/01 06:29:00;;;;;;;29.05;14.40;;;6.30;99.90;;;5.48;100.00;99667.56;4168163;28;20394;-76
2023/12/01 06:31:01;;;;;;;28.73;14.13;;;6.30;99.90;;;5.44;100.00;99671.44;4166798;28;20033;-76
2023/12/01 06:33:05;;;;;;;24.88;15.18;;;6.30;99.90;;;5.47;100.00;99675.56;4167035;28;20034;-76
2023/12/01 06:35:10;;;;;;;28.73;13.77;;;6.30;99.90;;;5.45;100.00;99667.88;4167208;28;20508;-76
2023/12/01 06:37:11;;;;;;;26.95;14.90;;;6.30;99.90;;;5.45;100.00;99673.09;4169169;28;20272;-76
2023/12/01 06:39:12;;;;;;;31.73;16.23;;;6.30;99.90;;;5.45;100.00;99667.88;4171284;28;20384;-76
2023/12/01 06:41:13;;;;;;;26.38;15.68;;;6.30;99.90;;;5.49;100.00;99684.09;4170018;28;20509;-76
2023/12/01 06:43:14;;;;;;;28.02;15.52;;;6.30;99.90;;;5.49;100.00;99684.94;4171139;28;20029;-76
2023/12/01 06:45:17;;;;;;;27.85;15.27;;;6.30;99.90;;;5.48;100.00;99683.28;4170890;28;20080;-76
2023/12/01 06:47:18;;;;;;;30.20;16.43;;;6.30;99.90;;;5.45;100.00;99675.72;4186460;28;20033;-76
2023/12/01 06:49:19;;;;;;;26.17;14.60;;;6.20;99.90;;;5.38;100.00;99676.44;4171053;28;20096;-76
2023/12/01 06:51:20;;;;;;;24.08;14.55;;;6.20;99.90;;;5.34;100.00;99681.19;4186108;28;20033;-76
2023/12/01 06:53:21;;;;;;;26.92;15.13;;;6.20;99.90;;;5.27;100.00;99680.13;4168712;28;20026;-76
2023/12/01 06:55:21;;;;;;;23.73;14.15;;;6.20;99.90;;;5.28;100.00;99681.78;4169428;28;20021;-76
2023/12/01 06:57:22;;;;;;;27.50;14.38;;;6.10;99.90;;;5.24;100.00;99688.25;4170794;28;20037;-76
2023/12/01 06:59:23;;;;;;;27.83;14.10;;;6.10;99.90;;;5.24;100.00;99680.41;4169858;28;20028;-76
2023/12/01 07:01:24;;;;;;;27.38;15.68;;;6.10;99.90;;;5.22;100.00;99687.59;4170466;28;20025;-76
2023/12/01 07:03:25;;;;;;;23.70;15.07;;;6.10;99.90;;;5.21;100.00;99685.94;4170813;28;20048;-76
2023/12/01 07:05:27;;;;;;;28.45;15.93;;;6.10;99.90;;;5.22;100.00;99692.00;4170682;28;20033;-76
2023/12/01 07:07:30;;;;;;;27.17;13.85;;;6.00;99.90;;;5.23;100.00;99698.84;4169638;28;20562;-76
2023/12/01 07:09:31;;;;;;;31.10;14.82;;;6.10;99.90;;;5.25;100.00;99691.69;4169055;28;20018;-76
2023/12/01 07:11:32;;;;;;;27.17;14.77;;;6.00;99.90;;;5.27;100.00;99705.44;4169411;28;20033;-76
2023/12/01 07:13:33;;;;;;;27.85;14.25;;;6.10;99.90;;;5.22;100.00;99708.50;4170680;28;20029;-76
2023/12/01 07:15:34;;;;;;;28.65;15.30;;;6.10;99.90;;;5.28;100.00;99718.38;4168779;28;20049;-76
2023/12/01 07:17:34;;;;;;;28.85;15.88;;;6.10;99.90;;;5.29;100.00;99709.53;4170288;28;20030;-76
2023/12/01 07:19:35;;;;;;;29.77;14.82;;;6.10;99.90;;;5.32;100.00;99718.88;4169421;28;20425;-76
2023/12/01 07:21:38;;;;;;;26.98;15.02;;;6.10;99.90;;;5.29;100.00;99720.00;4185768;28;20025;-76
2023/12/01 07:23:41;;;;;;;27.42;15.07;;;6.10;99.90;;;5.33;100.00;99721.38;4170471;28;20104;-76
2023/12/01 07:25:46;;;;;;;19.87;11.33;;;6.20;99.90;;;5.28;100.00;99723.59;4169361;28;20018;-76
2023/12/01 07:27:56;;;;;;;28.02;14.85;;;6.20;99.90;;;5.32;100.00;99722.31;4169329;28;20036;-76
2023/12/01 07:29:56;;;;;;;21.77;12.98;;;6.10;99.90;;;5.36;100.00;99725.47;4169064;28;20115;-76
2023/12/01 07:31:59;;;;;;;23.75;13.90;;;6.20;99.90;;;5.33;100.00;99723.97;4185611;28;20021;-76
2023/12/01 07:34:01;;;;;;;23.42;14.00;;;6.20;99.90;;;5.37;100.00;99733.19;4169206;28;20060;-76
2023/12/01 07:36:02;;;;;;;24.30;14.75;;;6.20;99.90;;;5.32;100.00;99738.00;4169242;28;20022;-76
2023/12/01 07:38:04;;;;;;;23.52;13.20;;;6.20;99.90;;;5.31;100.00;99731.16;4166014;28;20429;-76
2023/12/01 07:40:06;;;;;;;26.27;14.48;;;6.20;99.90;;;5.31;100.00;99739.00;4168973;28;20104;-76
2023/12/01 07:42:08;;;;;;;25.70;14.20;;;6.20;99.90;;;5.37;100.00;99746.25;4169155;28;20505;-76
2023/12/01 07:44:09;;;;;;;23.85;14.63;;;6.20;99.90;;;5.35;100.00;99739.50;4170414;28;20037;-76
2023/12/01 07:46:09;;;;;;;20.35;13.07;;;6.20;99.90;;;5.36;100.00;99749.84;4170079;28;20029;-76
2023/12/01 07:48:10;;;;;;;21.13;12.60;;;6.20;99.90;;;5.33;100.00;99750.13;4168483;28;20075;-75
2023/12/01 07:50:11;;;;;;;21.63;13.20;;;6.20;99.90;;;5.34;100.00;99749.16;4169873;28;20029;-76
2023/12/01 07:52:13;;;;;;;21.88;12.88;;;6.20;99.90;;;5.35;100.00;99749.97;4168212;28;20033;-75
2023/12/01 07:54:14;;;;;;;22.67;13.40;;;6.20;99.90;;;5.39;100.00;99752.16;4168829;28;20033;-76
2023/12/01 07:56:22;;;;;;;22.95;12.60;;;6.20;99.90;;;5.40;100.00;99764.28;4169902;28;20029;-76
2023/12/01 07:58:22;;;;;;;22.63;13.25;;;6.20;99.90;;;5.38;100.00;99753.13;4169768;28;20033;-76
2023/12/01 08:00:23;;;;;;;20.52;13.23;;;6.20;99.90;;;5.38;100.00;99766.19;4169824;28;20026;-75
2023/12/01 08:02:24;;;;;;;20.90;12.43;;;6.20;99.90;;;5.39;100.00;99765.22;4168717;28;20022;-75
2023/12/01 08:04:25;;;;;;;22.20;13.27;;;6.20;99.90;;;5.43;100.00;99768.38;4169833;28;20017;-77
2023/12/01 08:06:26;;;;;;;21.13;13.27;;;6.20;99.90;;;5.45;100.00;99767.25;4168435;28;20026;-74
2023/12/01 08:08:26;;;;;;;20.58;12.68;;;6.30;99.90;;;5.53;100.00;99772.56;4169615;28;20025;-75
2023/12/01 08:10:27;;;;;;;22.67;13.05;;;6.30;99.90;;;5.61;100.00;99782.31;4168392;28;20033;-77
2023/12/01 08:12:28;;;;;;;21.42;13.15;;;6.40;99.90;;;5.51;100.00;99777.13;4169442;28;20022;-75
2023/12/01 08:14:29;;;;;;;23.83;13.20;;;6.40;99.90;;;5.42;100.00;99777.19;4168196;28;20039;-76
2023/12/01 08:16:30;;;;;;;20.60;12.20;;;6.40;99.90;;;5.45;100.00;99769.88;4167411;28;20053;-76
2023/12/01 08:18:31;;;;;;;20.60;12.77;;;6.30;99.90;;;5.50;100.00;99780.72;4200602;28;20032;-76
2023/12/01 08:20:32;;;;;;;20.20;12.35;;;6.30;99.90;;;5.53;100.00;99785.66;4168169;28;20013;-76
2023/12/01 08:22:37;;;;;;;18.88;11.90;;;6.30;99.90;;;5.56;100.00;99785.34;4168601;28;20507;-76
2023/12/01 08:24:38;;;;;;;19.92;13.52;;;6.40;99.90;;;5.57;100.00;99792.25;4167202;28;20045;-76
2023/12/01 08:26:40;;;;;;;20.35;12.02;;;6.40;99.90;;;5.60;100.00;99793.72;4168696;28;20489;-76